Time;durP1;ratioP1;P1;durP2;ratioP2;P2;SDS_P1;SDS_P2;PMS_P1;PMS_P2;Temp;Humidity;BMP_temperature;BMP_pressure;BME280_temperature;BME280_humidity;BME280_pressure;Samples;Min_cycle;Max_cycle;Signal;HPM_P1;HPM_P2
2021/01/03 00:00:18;;;;;;;48.10;25.07;;;1.30;99.90;;;;;;5049241;28;20700;-73
2021/01/03 00:02:47;;;;;;;46.97;26.53;;;1.40;99.90;;;;;;5047533;28;20205;-73
2021/01/03 00:05:18;;;;;;;44.80;25.40;;;1.40;99.90;;;;;;5046524;28;20520;-74
2021/01/03 00:07:44;;;;;;;46.53;25.40;;;1.40;99.90;;;;;;5023805;28;20245;-73
2021/01/03 00:10:10;;;;;;;43.17;25.20;;;1.40;99.90;;;;;;5042028;28;20221;-73
2021/01/03 00:12:36;;;;;;;49.97;26.47;;;1.40;99.90;;;;;;5024936;28;20178;-74
2021/01/03 00:15:08;;;;;;;45.47;24.90;;;1.40;99.90;;;;;;5041516;28;20182;-73
2021/01/03 00:17:35;;;;;;;49.43;27.00;;;1.50;99.90;;;;;;5024500;28;20661;-75
2021/01/03 00:20:00;;;;;;;45.83;26.30;;;1.50;99.90;;;;;;5051972;28;20204;-73
2021/01/03 00:22:26;;;;;;;44.30;25.77;;;1.50;99.90;;;;;;5051929;28;20194;-73
2021/01/03 00:24:51;;;;;;;44.83;24.73;;;1.50;99.90;;;;;;5050587;28;20170;-73
2021/01/03 00:27:17;;;;;;;46.67;25.80;;;1.40;99.90;;;;;;5051850;28;20170;-73
2021/01/03 00:29:43;;;;;;;44.93;25.00;;;1.50;99.90;;;;;;5052151;28;20167;-73
2021/01/03 00:32:09;;;;;;;46.70;26.30;;;1.40;99.90;;;;;;5051937;28;20594;-72
2021/01/03 00:34:38;;;;;;;45.83;26.47;;;1.40;99.90;;;;;;5050735;28;20227;-73
2021/01/03 00:37:04;;;;;;;49.70;26.93;;;1.40;99.90;;;;;;5054408;28;20592;-73
2021/01/03 00:39:30;;;;;;;48.73;26.23;;;1.50;99.90;;;;;;5055564;28;20709;-73
2021/01/03 00:41:55;;;;;;;50.07;26.53;;;1.40;99.90;;;;;;5049676;28;20308;-73
2021/01/03 00:44:21;;;;;;;48.83;27.07;;;1.40;99.90;;;;;;5055796;28;20186;-73
2021/01/03 00:46:47;;;;;;;48.07;27.07;;;1.40;99.90;;;;;;5054179;28;20537;-73
2021/01/03 00:49:13;;;;;;;49.67;27.50;;;1.40;99.90;;;;;;5040194;28;20179;-73
2021/01/03 00:51:39;;;;;;;52.13;28.53;;;1.30;99.90;;;;;;5055141;28;20206;-73
2021/01/03 00:54:05;;;;;;;52.43;27.90;;;1.30;99.90;;;;;;5055179;28;20192;-73
2021/01/03 00:56:31;;;;;;;47.10;25.77;;;1.30;99.90;;;;;;5045094;28;20977;-74
2021/01/03 00:58:57;;;;;;;51.70;26.77;;;1.20;99.90;;;;;;5055155;28;20178;-74
2021/01/03 01:01:26;;;;;;;48.70;26.33;;;1.20;99.90;;;;;;5054880;28;20216;-74
2021/01/03 01:03:54;;;;;;;48.33;27.53;;;1.20;99.90;;;;;;5055201;28;20194;-74
2021/01/03 01:06:23;;;;;;;49.20;26.83;;;1.20;99.90;;;;;;5055656;28;20620;-74
2021/01/03 01:08:51;;;;;;;51.80;25.80;;;1.20;99.90;;;;;;5055319;28;20178;-74
2021/01/03 01:11:20;;;;;;;50.03;27.30;;;1.10;99.90;;;;;;5055002;28;20239;-74
2021/01/03 01:13:46;;;;;;;48.57;26.90;;;1.10;99.90;;;;;;5053216;28;20174;-74
2021/01/03 01:16:11;;;;;;;50.73;27.40;;;1.20;99.90;;;;;;5055021;28;20185;-74
2021/01/03 01:18:37;;;;;;;49.43;27.53;;;1.20;99.90;;;;;;5055074;28;20182;-74
2021/01/03 01:21:04;;;;;;;52.23;27.60;;;1.20;99.90;;;;;;5055083;28;20221;-74
2021/01/03 01:23:29;;;;;;;52.87;27.70;;;1.20;99.90;;;;;;5054630;28;20229;-74
2021/01/03 01:25:55;;;;;;;51.33;27.47;;;1.10;99.90;;;;;;5054969;28;20181;-74
2021/01/03 01:28:21;;;;;;;52.13;27.60;;;1.10;99.90;;;;;;5054912;28;20169;-74
2021/01/03 01:30:47;;;;;;;52.33;27.23;;;1.10;99.90;;;;;;5054395;28;20213;-74
2021/01/03 01:33:13;;;;;;;50.67;26.97;;;1.10;99.90;;;;;;5042414;28;20202;-73
2021/01/03 01:35:39;;;;;;;58.73;30.50;;;1.20;99.90;;;;;;5043903;28;20182;-75
2021/01/03 01:38:05;;;;;;;55.50;28.17;;;1.10;99.90;;;;;;5019364;28;20244;-73
2021/01/03 01:40:35;;;;;;;69.63;31.23;;;1.10;99.90;;;;;;5018904;28;20203;-74
2021/01/03 01:43:02;;;;;;;56.43;29.00;;;1.10;99.90;;;;;;5053223;28;20216;-73
2021/01/03 01:45:32;;;;;;;62.17;31.13;;;1.10;99.90;;;;;;5054520;28;20188;-73
2021/01/03 01:48:19;;;;;;;60.07;28.63;;;1.10;99.90;;;;;;5054628;28;20166;-74
2021/01/03 01:51:13;;;;;;;53.67;27.33;;;1.10;99.90;;;;;;5052232;28;20280;-75
2021/01/03 01:54:00;;;;;;;55.80;27.90;;;1.20;99.90;;;;;;5046086;28;20213;-74
2021/01/03 01:56:25;;;;;;;50.13;26.67;;;1.20;99.90;;;;;;5044124;28;20177;-72
2021/01/03 01:59:35;;;;;;;50.57;26.80;;;1.10;99.90;;;;;;5054058;28;20182;-72
2021/01/03 02:02:23;;;;;;;51.97;26.67;;;1.10;99.90;;;;;;5025222;28;20232;-73
2021/01/03 02:04:59;;;;;;;54.70;27.97;;;1.10;99.90;;;;;;5053987;28;20162;-72
2021/01/03 02:07:33;;;;;;;55.07;25.93;;;1.10;99.90;;;;;;5053963;28;20219;-73
2021/01/03 02:10:23;;;;;;;53.57;27.27;;;1.10;99.90;;;;;;5049840;28;20169;-73
2021/01/03 02:13:10;;;;;;;53.20;26.77;;;1.20;99.90;;;;;;5053871;28;20201;-73
2021/01/03 02:15:38;;;;;;;47.40;26.60;;;1.20;99.90;;;;;;5053682;28;20712;-73
2021/01/03 02:18:06;;;;;;;51.90;27.70;;;1.30;99.90;;;;;;5053804;28;20213;-72
2021/01/03 02:20:56;;;;;;;49.83;26.60;;;1.30;99.90;;;;;;5053608;28;20206;-73
2021/01/03 02:23:51;;;;;;;48.53;26.10;;;1.30;99.90;;;;;;5022664;28;20221;-73
2021/01/03 02:26:21;;;;;;;45.70;26.40;;;1.30;99.90;;;;;;5046899;28;20194;-72
2021/01/03 02:28:47;;;;;;;50.03;26.50;;;1.30;99.90;;;;;;5053539;28;20174;-73
2021/01/03 02:31:23;;;;;;;53.93;27.57;;;1.20;99.90;;;;;;5042376;28;20207;-72
2021/01/03 02:33:50;;;;;;;50.33;27.57;;;1.20;99.90;;;;;;5024205;28;20216;-72
2021/01/03 02:36:34;;;;;;;46.63;25.80;;;1.20;99.90;;;;;;5051794;28;20174;-73
2021/01/03 02:39:12;;;;;;;54.93;26.93;;;1.20;99.90;;;;;;5046236;28;20177;-75
2021/01/03 02:41:38;;;;;;;55.23;27.87;;;1.20;99.90;;;;;;5053499;28;20247;-72
2021/01/03 02:44:05;;;;;;;49.07;26.90;;;1.20;99.90;;;;;;5053471;28;20189;-73
2021/01/03 02:46:30;;;;;;;49.87;26.00;;;1.20;99.90;;;;;;5052674;28;20747;-72
2021/01/03 02:48:56;;;;;;;55.47;27.27;;;1.30;99.90;;;;;;5053304;28;20216;-71
2021/01/03 02:51:28;;;;;;;49.03;26.67;;;1.30;99.90;;;;;;5052993;28;20706;-73
2021/01/03 02:53:54;;;;;;;49.40;25.37;;;1.40;99.90;;;;;;5053138;28;20209;-72
2021/01/03 02:56:20;;;;;;;48.37;26.73;;;1.40;99.90;;;;;;5042930;28;20658;-72
2021/01/03 02:58:45;;;;;;;49.93;26.53;;;1.40;99.90;;;;;;5052498;28;20174;-73
2021/01/03 03:01:11;;;;;;;49.27;26.80;;;1.40;99.90;;;;;;5052331;28;20241;-73
2021/01/03 03:03:37;;;;;;;51.43;27.73;;;1.40;99.90;;;;;;5053173;28;20189;-73
2021/01/03 03:06:03;;;;;;;52.90;27.10;;;1.30;99.90;;;;;;5052910;28;20340;-72
2021/01/03 03:08:29;;;;;;;55.10;27.73;;;1.20;99.90;;;;;;5052665;28;20226;-72
2021/01/03 03:10:55;;;;;;;51.20;27.70;;;1.20;99.90;;;;;;5052812;28;20192;-73
2021/01/03 03:13:21;;;;;;;54.30;28.10;;;1.20;99.90;;;;;;5052889;28;20185;-73
2021/01/03 03:15:47;;;;;;;50.73;26.93;;;1.20;99.90;;;;;;5053818;28;20235;-72
2021/01/03 03:18:13;;;;;;;51.47;27.43;;;1.20;99.90;;;;;;5053361;28;20683;-72
2021/01/03 03:20:39;;;;;;;52.57;26.40;;;1.30;99.90;;;;;;5052865;28;20277;-73
2021/01/03 03:23:04;;;;;;;47.67;25.23;;;1.30;99.90;;;;;;5052590;28;20291;-72
2021/01/03 03:25:30;;;;;;;56.40;28.70;;;1.30;99.90;;;;;;5039996;28;20171;-73
2021/01/03 03:27:55;;;;;;;55.53;28.50;;;1.30;99.90;;;;;;5052543;28;20676;-73
2021/01/03 03:30:24;;;;;;;53.47;27.27;;;1.40;99.90;;;;;;5052496;28;20691;-73
2021/01/03 03:32:54;;;;;;;51.53;26.83;;;1.30;99.90;;;;;;5052343;28;20632;-73
2021/01/03 03:35:24;;;;;;;51.37;27.83;;;1.30;99.90;;;;;;5052503;28;20640;-73
2021/01/03 03:37:50;;;;;;;51.77;27.73;;;1.30;99.90;;;;;;5050891;28;20179;-73
2021/01/03 03:40:16;;;;;;;52.57;26.67;;;1.30;99.90;;;;;;5050952;28;20571;-72
2021/01/03 03:42:42;;;;;;;50.73;27.87;;;1.20;99.90;;;;;;5052186;28;20201;-72
2021/01/03 03:45:09;;;;;;;53.30;27.50;;;1.20;99.90;;;;;;5050957;28;20173;-74
2021/01/03 03:47:35;;;;;;;55.43;28.77;;;1.20;99.90;;;;;;5052583;28;20198;-73
2021/01/03 03:50:16;;;;;;;54.47;28.03;;;1.20;99.90;;;;;;5051045;28;20174;-74
2021/01/03 03:52:43;;;;;;;51.97;26.40;;;1.20;99.90;;;;;;5052078;28;20173;-74
2021/01/03 03:55:09;;;;;;;51.93;27.53;;;1.30;99.90;;;;;;5049172;28;20171;-72
2021/01/03 03:57:35;;;;;;;54.17;27.53;;;1.30;99.90;;;;;;5045504;28;20671;-74
2021/01/03 04:00:04;;;;;;;56.30;27.77;;;1.30;99.90;;;;;;5051811;28;20174;-73
2021/01/03 04:02:30;;;;;;;50.63;26.30;;;1.30;99.90;;;;;;5049775;28;20190;-74
2021/01/03 04:04:56;;;;;;;52.67;28.30;;;1.30;99.90;;;;;;5052279;28;20185;-73
2021/01/03 04:07:21;;;;;;;54.27;27.83;;;1.30;99.90;;;;;;5052102;28;20165;-73
2021/01/03 04:09:47;;;;;;;51.10;27.33;;;1.30;99.90;;;;;;5051300;28;20208;-73
2021/01/03 04:12:12;;;;;;;56.73;28.40;;;1.30;99.90;;;;;;5056008;28;20194;-72
2021/01/03 04:14:38;;;;;;;53.80;28.60;;;1.30;99.90;;;;;;5056440;28;20240;-72
2021/01/03 04:17:03;;;;;;;54.43;26.97;;;1.30;99.90;;;;;;5056027;28;20170;-72
2021/01/03 04:19:29;;;;;;;53.33;27.03;;;1.40;99.90;;;;;;5054716;28;20204;-73
2021/01/03 04:22:00;;;;;;;53.67;27.77;;;1.40;99.90;;;;;;5055838;28;20731;-73
2021/01/03 04:24:28;;;;;;;50.77;25.60;;;1.40;99.90;;;;;;5056230;28;20179;-73
2021/01/03 04:27:00;;;;;;;51.63;27.17;;;1.40;99.90;;;;;;5055726;28;20707;-72
2021/01/03 04:29:26;;;;;;;48.93;26.13;;;1.40;99.90;;;;;;5055888;28;20200;-71
2021/01/03 04:31:56;;;;;;;52.20;26.87;;;1.50;99.90;;;;;;5055742;28;20233;-72
2021/01/03 04:34:23;;;;;;;51.90;26.43;;;1.50;99.90;;;;;;5056083;28;20316;-73
2021/01/03 04:36:50;;;;;;;47.80;25.67;;;1.50;99.90;;;;;;5055584;28;20162;-72
2021/01/03 04:39:17;;;;;;;48.83;26.00;;;1.50;99.90;;;;;;5055935;28;20182;-74
2021/01/03 04:41:43;;;;;;;49.00;26.93;;;1.50;99.90;;;;;;5054206;28;20272;-73
2021/01/03 04:44:26;;;;;;;52.53;27.23;;;1.50;99.90;;;;;;5055659;28;20194;-72
2021/01/03 04:46:53;;;;;;;50.53;25.33;;;1.50;99.90;;;;;;5055409;28;20586;-72
2021/01/03 04:49:26;;;;;;;54.03;26.57;;;1.50;99.90;;;;;;5055362;28;20193;-73
2021/01/03 04:52:04;;;;;;;53.60;26.83;;;1.50;99.90;;;;;;5055623;28;20269;-73
2021/01/03 04:54:33;;;;;;;55.90;27.33;;;1.50;99.90;;;;;;5055240;28;20166;-72
2021/01/03 04:57:07;;;;;;;54.40;27.30;;;1.50;99.90;;;;;;5043885;28;20170;-73
2021/01/03 04:59:47;;;;;;;53.43;27.30;;;1.40;99.90;;;;;;5055167;28;20200;-72
2021/01/03 05:02:44;;;;;;;53.60;26.30;;;1.40;99.90;;;;;;5024344;28;20284;-73
2021/01/03 05:05:24;;;;;;;48.13;25.90;;;1.40;99.90;;;;;;5043005;28;20177;-73
2021/01/03 05:08:16;;;;;;;55.23;27.87;;;1.40;99.90;;;;;;5047086;28;20172;-73
2021/01/03 05:10:42;;;;;;;53.37;28.37;;;1.40;99.90;;;;;;5050627;28;20205;-74
2021/01/03 05:13:26;;;;;;;51.13;26.10;;;1.40;99.90;;;;;;5055666;28;20177;-73
2021/01/03 05:15:52;;;;;;;50.93;26.47;;;1.40;99.90;;;;;;5054135;28;20181;-74
2021/01/03 05:18:18;;;;;;;51.80;27.77;;;1.50;99.90;;;;;;5054961;28;20702;-73
2021/01/03 05:20:55;;;;;;;53.10;27.17;;;1.30;99.90;;;;;;5054113;28;20202;-73
2021/01/03 05:23:24;;;;;;;56.73;27.73;;;1.30;99.90;;;;;;5054843;28;20243;-73
2021/01/03 05:25:51;;;;;;;55.47;27.53;;;1.30;99.90;;;;;;5054731;28;20162;-74
2021/01/03 05:28:32;;;;;;;55.63;26.47;;;1.30;99.90;;;;;;5054995;28;20186;-74
2021/01/03 05:31:11;;;;;;;47.97;26.43;;;1.30;99.90;;;;;;5052498;28;20750;-74
2021/01/03 05:33:47;;;;;;;54.80;26.77;;;1.30;99.90;;;;;;5054563;28;20193;-74
2021/01/03 05:36:26;;;;;;;51.17;26.17;;;1.40;99.90;;;;;;5054593;28;20176;-74
2021/01/03 05:38:52;;;;;;;46.90;26.10;;;1.40;99.90;;;;;;5054870;28;20248;-73
2021/01/03 05:41:49;;;;;;;52.50;27.87;;;1.40;99.90;;;;;;5054347;28;20269;-73
2021/01/03 05:44:24;;;;;;;55.17;27.60;;;1.40;99.90;;;;;;5044919;28;20835;-73
2021/01/03 05:46:54;;;;;;;50.03;25.73;;;1.30;99.90;;;;;;5054679;28;20180;-73
2021/01/03 05:49:25;;;;;;;56.57;28.27;;;1.30;99.90;;;;;;5054575;28;20178;-74
2021/01/03 05:52:13;;;;;;;51.37;26.77;;;1.20;99.90;;;;;;5054095;28;20588;-73
2021/01/03 05:54:40;;;;;;;51.40;26.43;;;1.10;99.90;;;;;;5052043;28;20536;-73
2021/01/03 05:57:10;;;;;;;59.70;29.33;;;1.10;99.90;;;;;;5043991;28;20178;-72
2021/01/03 05:59:39;;;;;;;60.57;29.70;;;1.10;99.90;;;;;;5054014;28;20191;-73
2021/01/03 06:02:12;;;;;;;62.73;28.53;;;1.10;99.90;;;;;;5053770;28;20704;-73
2021/01/03 06:04:39;;;;;;;56.63;27.70;;;1.00;99.90;;;;;;5054244;28;20180;-71
2021/01/03 06:07:25;;;;;;;56.37;28.10;;;1.10;99.90;;;;;;5038501;28;20519;-73
2021/01/03 06:09:50;;;;;;;52.47;25.50;;;1.10;99.90;;;;;;5049957;28;20174;-72
2021/01/03 06:12:26;;;;;;;54.00;26.33;;;1.10;99.90;;;;;;5052589;28;20240;-73
2021/01/03 06:15:04;;;;;;;54.13;26.37;;;1.20;99.90;;;;;;5053772;28;20173;-73
2021/01/03 06:18:00;;;;;;;54.73;27.60;;;1.10;99.90;;;;;;5054022;28;20605;-72
2021/01/03 06:20:31;;;;;;;55.90;27.27;;;1.10;99.90;;;;;;5035354;28;20226;-73
2021/01/03 06:23:06;;;;;;;54.77;27.53;;;1.10;99.90;;;;;;5053914;28;20536;-73
2021/01/03 06:25:43;;;;;;;52.90;26.57;;;1.10;99.90;;;;;;5053562;28;20173;-73
2021/01/03 06:28:21;;;;;;;55.73;27.13;;;1.00;99.90;;;;;;5053915;28;20235;-73
2021/01/03 06:31:04;;;;;;;57.20;26.77;;;1.00;99.90;;;;;;5053702;28;20605;-73
2021/01/03 06:33:52;;;;;;;60.10;28.07;;;1.00;99.90;;;;;;5052901;28;20235;-73
2021/01/03 06:36:23;;;;;;;53.67;29.47;;;1.00;99.90;;;;;;5052252;28;20174;-73
2021/01/03 06:38:58;;;;;;;56.67;27.23;;;1.00;99.90;;;;;;5053473;28;20671;-73
2021/01/03 06:41:34;;;;;;;59.17;28.30;;;1.00;99.90;;;;;;5053230;28;20687;-73
2021/01/03 06:44:14;;;;;;;51.73;26.17;;;1.00;99.90;;;;;;5053245;28;20215;-73
2021/01/03 06:47:09;;;;;;;53.67;26.23;;;1.00;99.90;;;;;;5053329;28;20296;-72
2021/01/03 06:50:05;;;;;;;59.83;27.53;;;1.10;99.90;;;;;;5048476;28;20178;-72
2021/01/03 06:52:37;;;;;;;51.27;26.60;;;1.00;99.90;;;;;;5047427;28;20174;-72
2021/01/03 06:55:14;;;;;;;51.30;27.77;;;1.00;99.90;;;;;;5051368;28;20178;-72
2021/01/03 06:58:12;;;;;;;52.50;25.30;;;1.00;99.90;;;;;;5047148;28;20227;-73
2021/01/03 07:00:41;;;;;;;45.43;23.80;;;1.00;99.90;;;;;;5052931;28;20292;-73
2021/01/03 07:03:21;;;;;;;51.47;25.17;;;1.00;99.90;;;;;;5052902;28;20203;-72
2021/01/03 07:06:09;;;;;;;46.10;24.77;;;1.00;99.90;;;;;;5053037;28;20219;-72
2021/01/03 07:08:43;;;;;;;49.63;24.10;;;1.00;99.90;;;;;;5052866;28;20177;-73
2021/01/03 07:11:46;;;;;;;46.87;24.37;;;1.00;99.90;;;;;;5052837;28;20202;-73
2021/01/03 07:14:21;;;;;;;45.27;24.20;;;1.00;99.90;;;;;;5053054;28;20181;-73
2021/01/03 07:16:57;;;;;;;45.40;23.73;;;1.00;99.90;;;;;;5052621;28;20177;-72
2021/01/03 07:19:35;;;;;;;46.77;23.63;;;1.00;99.90;;;;;;5053003;28;20212;-73
2021/01/03 07:22:15;;;;;;;43.03;23.27;;;1.00;99.90;;;;;;5052466;28;20193;-73
2021/01/03 07:24:44;;;;;;;44.57;23.93;;;1.00;99.90;;;;;;5052598;28;20170;-73
2021/01/03 07:27:25;;;;;;;43.77;23.13;;;1.00;99.90;;;;;;5052402;28;20232;-72
2021/01/03 07:29:57;;;;;;;45.47;23.17;;;1.00;99.90;;;;;;5052547;28;20174;-73
2021/01/03 07:32:39;;;;;;;46.27;23.77;;;1.00;99.90;;;;;;5052327;28;20184;-73
2021/01/03 07:35:19;;;;;;;48.70;23.83;;;1.00;99.90;;;;;;5052422;28;20639;-72
2021/01/03 07:37:46;;;;;;;47.77;22.93;;;1.00;99.90;;;;;;5052415;28;20181;-72
2021/01/03 07:40:13;;;;;;;44.57;23.73;;;1.00;99.90;;;;;;5050764;28;20232;-73
2021/01/03 07:42:42;;;;;;;51.03;24.87;;;1.00;99.90;;;;;;5052091;28;20552;-72
2021/01/03 07:45:19;;;;;;;50.53;24.40;;;1.00;99.90;;;;;;5052283;28;20180;-73
2021/01/03 07:47:51;;;;;;;44.87;24.47;;;1.10;99.90;;;;;;5052508;28;20169;-73
2021/01/03 07:50:17;;;;;;;48.30;25.50;;;1.10;99.90;;;;;;5052429;28;20198;-72
2021/01/03 07:52:49;;;;;;;48.30;24.80;;;1.20;99.90;;;;;;5050820;28;20185;-73
2021/01/03 07:55:32;;;;;;;103.80;33.77;;;1.10;99.90;;;;;;5047923;28;20722;-73
2021/01/03 07:58:06;;;;;;;49.63;24.80;;;1.20;99.90;;;;;;5049051;28;20178;-73
2021/01/03 08:00:35;;;;;;;52.70;25.47;;;1.10;99.90;;;;;;5052014;28;20270;-73
2021/01/03 08:03:09;;;;;;;47.70;24.93;;;1.10;99.90;;;;;;5051937;28;20197;-73
2021/01/03 08:05:38;;;;;;;49.63;25.00;;;1.10;99.90;;;;;;5050812;28;20199;-73
2021/01/03 08:08:13;;;;;;;50.87;26.17;;;1.10;99.90;;;;;;5052100;28;20165;-72
2021/01/03 08:10:40;;;;;;;45.23;23.70;;;1.10;99.90;;;;;;5051472;28;20200;-72
2021/01/03 08:13:16;;;;;;;49.43;24.87;;;1.10;99.90;;;;;;5052072;28;20177;-73
2021/01/03 08:15:42;;;;;;;50.37;25.60;;;1.10;99.90;;;;;;5040116;28;20240;-73
2021/01/03 08:18:16;;;;;;;51.40;25.63;;;1.10;99.90;;;;;;5032141;28;20178;-73
2021/01/03 08:20:42;;;;;;;46.73;24.03;;;1.10;99.90;;;;;;5035261;28;20201;-73
2021/01/03 08:23:24;;;;;;;47.33;23.73;;;1.20;99.90;;;;;;5051841;28;20181;-72
2021/01/03 08:26:05;;;;;;;48.70;24.60;;;1.10;99.90;;;;;;5051900;28;20165;-73
2021/01/03 08:28:35;;;;;;;46.87;25.47;;;1.10;99.90;;;;;;5052005;28;20542;-73
2021/01/03 08:31:01;;;;;;;43.90;22.27;;;1.10;99.90;;;;;;5051720;28;20349;-73
2021/01/03 08:33:33;;;;;;;50.37;24.90;;;1.20;99.90;;;;;;5038776;28;20210;-73
2021/01/03 08:36:24;;;;;;;44.50;24.23;;;1.20;99.90;;;;;;5043084;28;20174;-72
2021/01/03 08:38:52;;;;;;;46.33;24.53;;;1.10;99.90;;;;;;5034448;28;20183;-71
2021/01/03 08:41:23;;;;;;;50.93;25.23;;;1.10;99.90;;;;;;5050868;28;20201;-74
2021/01/03 08:43:49;;;;;;;48.77;24.57;;;1.20;99.90;;;;;;5051657;28;20743;-73
2021/01/03 08:46:26;;;;;;;44.87;23.93;;;1.20;99.90;;;;;;5051615;28;20173;-73
2021/01/03 08:49:06;;;;;;;46.90;23.73;;;1.20;99.90;;;;;;5045068;28;20714;-73
2021/01/03 08:51:32;;;;;;;47.43;23.73;;;1.20;99.90;;;;;;5043476;28;20202;-73
2021/01/03 08:54:04;;;;;;;42.73;23.13;;;1.20;99.90;;;;;;5030751;28;20232;-73
2021/01/03 08:56:36;;;;;;;44.93;21.60;;;1.30;99.90;;;;;;5036986;28;20550;-73
2021/01/03 08:59:03;;;;;;;39.73;22.43;;;1.30;99.90;;;;;;5046224;28;20702;-73
2021/01/03 09:01:34;;;;;;;41.77;22.03;;;1.30;99.90;;;;;;5045945;28;20238;-73
2021/01/03 09:04:06;;;;;;;42.73;23.50;;;1.30;99.90;;;;;;5031722;28;20209;-73
2021/01/03 09:06:34;;;;;;;40.50;23.53;;;1.20;99.90;;;;;;5027921;28;20641;-73
2021/01/03 09:09:30;;;;;;;37.87;21.97;;;1.30;99.90;;;;;;5027881;28;20679;-73
2021/01/03 09:11:59;;;;;;;42.23;22.10;;;1.30;99.90;;;;;;5033279;28;20272;-73
2021/01/03 09:14:43;;;;;;;44.10;22.97;;;1.30;99.90;;;;;;5034271;28;20481;-74
2021/01/03 09:17:27;;;;;;;43.43;22.93;;;1.30;99.90;;;;;;5036624;28;20182;-73
2021/01/03 09:19:55;;;;;;;38.53;21.33;;;1.30;99.90;;;;;;5027860;28;20183;-73
2021/01/03 09:22:43;;;;;;;40.67;21.63;;;1.30;99.90;;;;;;5038690;28;20665;-73
2021/01/03 09:25:21;;;;;;;34.57;19.67;;;1.40;99.90;;;;;;5041207;28;20253;-72
2021/01/03 09:27:54;;;;;;;34.67;19.57;;;1.30;99.90;;;;;;5034533;28;20525;-73
2021/01/03 09:30:31;;;;;;;33.57;20.13;;;1.40;99.90;;;;;;5047734;28;20197;-73
2021/01/03 09:33:12;;;;;;;33.00;19.17;;;1.40;99.90;;;;;;5055041;28;20269;-73
2021/01/03 09:36:15;;;;;;;32.10;19.07;;;1.40;99.90;;;;;;5049016;28;20167;-73
2021/01/03 09:38:40;;;;;;;32.10;18.30;;;1.40;99.90;;;;;;5054719;28;20248;-73
2021/01/03 09:41:23;;;;;;;27.87;17.73;;;1.40;99.90;;;;;;5054510;28;20198;-74
2021/01/03 09:44:20;;;;;;;28.97;18.37;;;1.40;99.90;;;;;;5054523;28;20194;-73
2021/01/03 09:47:03;;;;;;;31.20;18.60;;;1.40;99.90;;;;;;5054860;28;20611;-74
2021/01/03 09:49:35;;;;;;;33.03;19.63;;;1.40;99.90;;;;;;5036209;28;20198;-73
2021/01/03 09:52:14;;;;;;;31.03;18.93;;;1.50;99.90;;;;;;5054659;28;20232;-73
2021/01/03 09:55:12;;;;;;;31.20;18.57;;;1.40;99.90;;;;;;5054285;28;20585;-74
2021/01/03 09:57:47;;;;;;;29.27;18.27;;;1.50;99.90;;;;;;4996291;28;20214;-73
2021/01/03 10:00:21;;;;;;;27.03;17.33;;;1.50;99.90;;;;;;5039931;28;20201;-74
2021/01/03 10:02:47;;;;;;;28.03;18.33;;;1.50;99.90;;;;;;5054264;28;20255;-73
2021/01/03 10:05:32;;;;;;;27.67;17.70;;;1.60;99.90;;;;;;5053074;28;20169;-73
2021/01/03 10:08:01;;;;;;;26.23;17.37;;;1.60;99.90;;;;;;5039353;28;20187;-73
2021/01/03 10:10:55;;;;;;;29.13;18.50;;;1.60;99.90;;;;;;5051388;28;20205;-73
2021/01/03 10:13:23;;;;;;;28.30;17.47;;;1.70;99.90;;;;;;5051836;28;20252;-73
2021/01/03 10:15:49;;;;;;;22.53;15.57;;;1.70;99.90;;;;;;5046455;28;20266;-73
2021/01/03 10:18:34;;;;;;;25.90;16.30;;;1.70;99.90;;;;;;5045285;28;20173;-73
2021/01/03 10:21:17;;;;;;;23.30;15.53;;;1.70;99.90;;;;;;5042572;28;20194;-73
2021/01/03 10:23:44;;;;;;;25.57;16.23;;;1.70;99.90;;;;;;5053667;28;20683;-73
2021/01/03 10:26:39;;;;;;;23.03;15.50;;;1.70;99.90;;;;;;5037093;28;20204;-75
2021/01/03 10:29:05;;;;;;;23.30;16.03;;;1.60;99.90;;;;;;5024786;28;20767;-75
2021/01/03 10:31:49;;;;;;;22.37;15.37;;;1.60;99.90;;;;;;5031645;28;20281;-74
2021/01/03 10:34:17;;;;;;;22.83;15.90;;;1.70;99.90;;;;;;5034246;28;20177;-74
2021/01/03 10:36:42;;;;;;;24.30;16.30;;;1.80;99.90;;;;;;5038122;28;20194;-72
2021/01/03 10:39:10;;;;;;;26.37;17.93;;;1.80;99.90;;;;;;5036736;28;20182;-73
2021/01/03 10:41:38;;;;;;;26.47;18.40;;;1.80;99.90;;;;;;5045775;28;20210;-74
2021/01/03 10:44:06;;;;;;;24.37;16.73;;;1.80;99.90;;;;;;5042971;28;20727;-77
2021/01/03 10:46:32;;;;;;;25.77;16.90;;;1.90;99.90;;;;;;5035549;28;20185;-73
2021/01/03 10:48:58;;;;;;;393.27;152.03;;;1.90;99.90;;;;;;5045481;28;20165;-73
2021/01/03 10:51:50;;;;;;;25.70;17.80;;;1.90;99.90;;;;;;5052961;28;20193;-72
2021/01/03 10:54:23;;;;;;;57.50;29.67;;;1.90;99.90;;;;;;5050522;28;20198;-73
2021/01/03 10:56:55;;;;;;;22.57;15.83;;;2.00;99.90;;;;;;5042950;28;20177;-73
2021/01/03 10:59:22;;;;;;;44.47;25.13;;;2.10;99.90;;;;;;5053087;28;20196;-74
2021/01/03 11:01:49;;;;;;;29.20;19.50;;;2.00;99.90;;;;;;5053111;28;20209;-73
2021/01/03 11:04:22;;;;;;;26.83;17.20;;;2.00;99.90;;;;;;5052970;28;20331;-73
2021/01/03 11:06:53;;;;;;;21.30;15.63;;;2.10;99.90;;;;;;5050462;28;20726;-74
2021/01/03 11:09:24;;;;;;;20.00;14.93;;;2.10;99.90;;;;;;5040748;28;20640;-74
2021/01/03 11:11:50;;;;;;;20.60;14.90;;;2.10;99.90;;;;;;5052574;28;20687;-74
2021/01/03 11:14:17;;;;;;;21.47;14.93;;;2.10;99.90;;;;;;5052742;28;20612;-74
2021/01/03 11:16:45;;;;;;;28.03;18.43;;;2.10;99.90;;;;;;5052985;28;20197;-74
2021/01/03 11:19:13;;;;;;;36.37;22.77;;;2.10;99.90;;;;;;5037993;28;20171;-75
2021/01/03 11:21:39;;;;;;;20.63;15.33;;;2.10;99.90;;;;;;5032272;28;20206;-72
2021/01/03 11:24:07;;;;;;;20.30;15.17;;;2.20;99.90;;;;;;5029404;28;20205;-73
2021/01/03 11:26:36;;;;;;;19.33;14.40;;;2.20;99.90;;;;;;5042515;28;20652;-73
2021/01/03 11:29:05;;;;;;;18.90;14.53;;;2.30;99.90;;;;;;5052819;28;20174;-74
2021/01/03 11:31:36;;;;;;;21.00;15.63;;;2.20;99.90;;;;;;5052447;28;20569;-74
2021/01/03 11:34:03;;;;;;;19.53;14.33;;;2.30;99.90;;;;;;5052346;28;20193;-73
2021/01/03 11:36:31;;;;;;;23.13;14.60;;;2.20;99.90;;;;;;5048813;28;20631;-73
2021/01/03 11:38:59;;;;;;;21.17;13.97;;;2.20;99.90;;;;;;5048190;28;20205;-74
2021/01/03 11:41:26;;;;;;;17.37;13.90;;;2.10;99.90;;;;;;5052231;28;20297;-74
2021/01/03 11:43:51;;;;;;;18.10;14.03;;;2.20;99.90;;;;;;5049653;28;20617;-73
2021/01/03 11:46:19;;;;;;;22.87;15.90;;;2.20;99.90;;;;;;5052237;28;20174;-73
2021/01/03 11:48:46;;;;;;;22.90;15.20;;;2.20;99.90;;;;;;5052541;28;20178;-74
2021/01/03 11:51:12;;;;;;;19.97;14.67;;;2.30;99.90;;;;;;5052212;28;20197;-73
2021/01/03 11:53:38;;;;;;;25.67;17.37;;;2.30;99.90;;;;;;5052160;28;20176;-73
2021/01/03 11:56:04;;;;;;;18.50;13.93;;;2.30;99.90;;;;;;5042340;28;20170;-74
2021/01/03 11:58:30;;;;;;;19.50;14.43;;;2.40;99.90;;;;;;5052216;28;20771;-73
2021/01/03 12:00:56;;;;;;;23.73;16.13;;;2.30;99.90;;;;;;5051056;28;20304;-73
2021/01/03 12:03:22;;;;;;;21.40;14.27;;;2.40;99.90;;;;;;5052267;28;20288;-74
2021/01/03 12:05:49;;;;;;;17.47;13.50;;;2.40;99.90;;;;;;5052054;28;20277;-73
2021/01/03 12:08:15;;;;;;;18.43;13.43;;;2.40;99.90;;;;;;5052322;28;20236;-73
2021/01/03 12:10:41;;;;;;;16.60;13.63;;;2.40;99.90;;;;;;5051959;28;20200;-73
2021/01/03 12:13:07;;;;;;;17.83;13.60;;;2.40;99.90;;;;;;5023559;28;20171;-73
2021/01/03 12:15:33;;;;;;;22.67;13.97;;;2.30;99.90;;;;;;5046903;28;20174;-73
2021/01/03 12:18:00;;;;;;;15.83;13.23;;;2.30;99.90;;;;;;5052300;28;20178;-73
2021/01/03 12:20:25;;;;;;;17.67;13.70;;;2.30;99.90;;;;;;5051698;28;20615;-73
2021/01/03 12:22:51;;;;;;;19.23;13.97;;;2.30;99.90;;;;;;5040286;28;20233;-72
2021/01/03 12:25:18;;;;;;;17.83;13.70;;;2.30;99.90;;;;;;5035667;28;20676;-73
2021/01/03 12:27:44;;;;;;;16.77;13.83;;;2.30;99.90;;;;;;5051540;28;20166;-71
2021/01/03 12:30:11;;;;;;;19.87;14.60;;;2.20;99.90;;;;;;5047684;28;20206;-73
2021/01/03 12:32:38;;;;;;;21.37;14.53;;;2.20;99.90;;;;;;5054901;28;20189;-73
2021/01/03 12:35:06;;;;;;;19.97;15.00;;;2.20;99.90;;;;;;5056022;28;20183;-73
2021/01/03 12:37:32;;;;;;;19.87;14.80;;;2.30;99.90;;;;;;5055996;28;20181;-73
2021/01/03 12:39:57;;;;;;;19.97;14.23;;;2.30;99.90;;;;;;5055461;28;20265;-73
2021/01/03 12:42:23;;;;;;;18.90;14.00;;;2.30;99.90;;;;;;5055562;28;20629;-73
2021/01/03 12:44:50;;;;;;;18.00;13.50;;;2.30;99.90;;;;;;5055631;28;20174;-73
2021/01/03 12:47:17;;;;;;;18.23;14.17;;;2.30;99.90;;;;;;5055048;28;20258;-73
2021/01/03 12:49:44;;;;;;;20.53;14.17;;;2.30;99.90;;;;;;5055497;28;20252;-73
2021/01/03 12:52:10;;;;;;;20.90;14.37;;;2.30;99.90;;;;;;5055662;28;20646;-71
2021/01/03 12:54:36;;;;;;;19.10;13.70;;;2.30;99.90;;;;;;5055610;28;20948;-73
2021/01/03 12:57:05;;;;;;;25.37;15.53;;;2.30;99.90;;;;;;5044058;28;20205;-73
2021/01/03 12:59:31;;;;;;;19.50;14.83;;;2.30;99.90;;;;;;5051514;28;20210;-73